Time;durP1;ratioP1;P1;durP2;ratioP2;P2;SDS_P1;SDS_P2;PMS_P1;PMS_P2;Temp;Humidity;BMP_temperature;BMP_pressure;BME280_temperature;BME280_humidity;BME280_pressure;Samples;Min_cycle;Max_cycle;Signal;HPM_P1;HPM_P2
2024/01/06 11:05:30;;;;;;;9.03;5.00;;;;;;;5.82;100.00;98064.56;5122125;27;20557;-87
2024/01/06 11:08:00;;;;;;;6.00;3.90;;;;;;;6.53;100.00;98043.88;5070970;28;38878;-89
2024/01/06 11:10:30;;;;;;;5.40;3.23;;;;;;;7.69;100.00;98106.03;5071172;28;41010;-88
2024/01/06 11:13:11;;;;;;;5.17;3.70;;;;;;;8.37;100.00;98098.19;5070667;28;41907;-89
2024/01/06 11:15:43;;;;;;;4.90;2.93;;;;;;;8.72;100.00;98079.16;5071506;28;42231;-89
2024/01/06 11:18:33;;;;;;;4.37;3.00;;;;;;;9.16;100.00;98081.38;5071593;28;38895;-88
2024/01/06 11:21:24;;;;;;;5.73;3.23;;;;;;;9.63;100.00;98102.72;5070760;28;41047;-89
2024/01/06 11:24:15;;;;;;;3.27;2.90;;;;;;;10.08;100.00;98113.59;5071370;28;44736;-88
2024/01/06 11:26:44;;;;;;;3.63;3.00;;;;;;;10.25;100.00;98057.69;5070916;28;42233;-88
2024/01/06 11:29:12;;;;;;;4.17;2.90;;;;;;;11.32;100.00;98115.78;5070790;28;38979;-89
2024/01/06 11:31:40;;;;;;;5.03;2.63;;;;;;;11.83;96.98;98085.22;5070943;28;41222;-90
2024/01/06 11:34:16;;;;;;;2.43;1.90;;;;;;;12.31;91.42;98122.03;5070240;28;43167;-89
2024/01/06 11:36:46;;;;;;;3.00;2.20;;;;;;;12.83;89.06;98109.78;5071151;28;41076;-89
2024/01/06 11:39:39;;;;;;;3.27;2.23;;;;;;;14.14;84.91;98122.38;5071158;28;40213;-90
2024/01/06 11:42:06;;;;;;;3.67;2.20;;;;;;;14.43;77.84;98109.16;5070641;28;42523;-89
2024/01/06 11:44:35;;;;;;;4.07;2.90;;;;;;;14.74;72.92;98130.22;5070380;28;41840;-91
2024/01/06 11:47:03;;;;;;;2.77;2.37;;;;;;;14.49;74.85;98121.94;5070423;28;41394;-90
2024/01/06 11:49:31;;;;;;;4.67;2.33;;;;;;;14.05;75.22;98094.78;5071023;28;39138;-88
2024/01/06 11:52:01;;;;;;;2.97;1.97;;;;;;;14.05;72.76;98126.72;5070471;28;40983;-91
2024/01/06 11:54:29;;;;;;;4.37;2.30;;;;;;;13.57;72.44;98089.28;5070420;28;43257;-88
2024/01/06 11:56:57;;;;;;;2.60;2.07;;;;;;;13.34;74.26;98087.75;5070584;28;42316;-89
2024/01/06 11:59:25;;;;;;;4.73;2.10;;;;;;;13.33;74.84;98126.81;5070626;28;39997;-88
2024/01/06 12:01:52;;;;;;;1.90;1.63;;;;;;;13.10;73.99;98123.41;5070566;28;41147;-89
2024/01/06 12:04:22;;;;;;;4.03;2.27;;;;;;;12.57;74.69;98067.63;5069686;28;41735;-88
2024/01/06 12:06:49;;;;;;;2.90;1.93;;;;;;;12.79;75.59;98113.66;5070208;28;41187;-90
2024/01/06 12:09:20;;;;;;;3.23;2.17;;;;;;;12.49;76.32;98079.84;5070567;28;38938;-90
2024/01/06 12:11:47;;;;;;;3.03;2.33;;;;;;;12.37;76.45;98065.75;5070400;28;42186;-89
2024/01/06 12:14:15;;;;;;;3.80;2.20;;;;;;;12.33;76.72;98064.34;5070159;28;43299;-89
2024/01/06 12:16:43;;;;;;;3.17;1.93;;;;;;;12.30;75.97;98064.59;5056890;28;42485;-89
2024/01/06 12:19:11;;;;;;;3.37;2.10;;;;;;;12.54;76.06;98070.53;5056838;28;38860;-89
2024/01/06 12:21:38;;;;;;;4.43;2.13;;;;;;;13.13;75.88;98101.88;5056662;28;40640;-88
2024/01/06 12:24:20;;;;;;;2.37;2.07;;;;;;;14.00;74.12;98105.81;5056655;28;42143;-88
2024/01/06 12:26:48;;;;;;;3.83;2.53;;;;;;;14.45;71.12;98110.72;5056713;28;41311;-88
2024/01/06 12:29:18;;;;;;;2.67;2.23;;;;;;;14.63;69.36;98129.53;5056837;28;38946;-89
2024/01/06 12:31:46;;;;;;;3.03;2.27;;;;;;;14.41;68.32;98064.03;5056612;28;41111;-88
2024/01/06 12:34:13;;;;;;;4.60;2.23;;;;;;;14.98;66.13;98088.97;5056241;28;41761;-88
2024/01/06 12:36:43;;;;;;;3.77;2.50;;;;;;;14.76;65.39;98095.44;5056228;28;42271;-88
2024/01/06 12:39:16;;;;;;;2.87;2.17;;;;;;;14.63;64.85;98126.84;5056483;28;39018;-90
2024/01/06 12:41:45;;;;;;;3.93;2.53;;;;;;;14.09;65.93;98074.03;5056299;28;40935;-90
2024/01/06 12:44:13;;;;;;;3.60;1.77;;;;;;;14.44;65.65;98095.72;5056333;28;42148;-89
2024/01/06 12:46:41;;;;;;;4.80;2.70;;;;;;;15.00;63.25;98137.66;5061226;28;41174;-89
2024/01/06 12:49:08;;;;;;;2.63;2.20;;;;;;;15.05;62.93;98124.75;5063142;28;40102;-88
2024/01/06 12:51:36;;;;;;;3.90;2.50;;;;;;;14.65;62.66;98109.75;5062412;28;42094;-87
2024/01/06 12:54:06;;;;;;;3.93;1.83;;;;;;;14.40;62.95;98123.59;5062934;28;41862;-88
2024/01/06 12:56:34;;;;;;;3.47;1.90;;;;;;;14.09;61.34;98146.78;5062424;28;42289;-89
2024/01/06 12:59:03;;;;;;;3.50;1.90;;;;;;;13.77;62.96;98130.94;5061352;28;39050;-90
2024/01/06 13:01:31;;;;;;;3.07;2.07;;;;;;;13.54;63.47;98126.78;5055767;28;41796;-90
2024/01/06 13:04:01;;;;;;;4.77;1.50;;;;;;;13.13;65.12;98085.91;5055228;28;42195;-91
2024/01/06 13:06:29;;;;;;;3.83;2.00;;;;;;;13.14;64.97;98116.88;5055991;28;41289;-90
2024/01/06 13:08:57;;;;;;;2.73;2.30;;;;;;;12.91;65.67;98102.84;5055840;28;40501;-90
2024/01/06 13:11:25;;;;;;;2.53;1.80;;;;;;;12.50;66.29;98066.44;5056053;28;40717;-91
2024/01/06 13:13:53;;;;;;;2.23;1.90;;;;;;;12.76;66.64;98124.53;5055700;28;43390;-90
2024/01/06 13:16:22;;;;;;;3.57;2.03;;;;;;;12.67;67.22;98128.78;5055696;28;41584;-89
2024/01/06 13:18:49;;;;;;;3.10;1.57;;;;;;;12.50;67.67;98102.78;5055865;28;38787;-89
2024/01/06 13:21:17;;;;;;;3.33;1.70;;;;;;;12.34;68.11;98081.13;5055490;28;41259;-89
2024/01/06 13:23:45;;;;;;;2.40;1.80;;;;;;;12.61;68.13;98128.47;5055336;28;42064;-90
2024/01/06 13:26:12;;;;;;;2.10;1.80;;;;;;;12.50;68.22;98116.91;5055273;28;40966;-88
2024/01/06 13:28:40;;;;;;;2.40;1.87;;;;;;;12.33;67.83;98101.53;5054939;28;40594;-90
2024/01/06 13:31:09;;;;;;;2.80;2.00;;;;;;;12.37;67.79;98132.13;5055885;28;40905;-89
2024/01/06 13:33:38;;;;;;;3.70;2.10;;;;;;;11.91;68.79;98062.50;5055453;28;41801;-90
2024/01/06 13:36:06;;;;;;;2.50;2.13;;;;;;;12.15;69.74;98108.31;5055691;28;41598;-88
2024/01/06 13:38:34;;;;;;;3.27;2.37;;;;;;;12.18;69.71;98124.00;5055661;28;39281;-89
2024/01/06 13:41:03;;;;;;;1.73;1.53;;;;;;;12.10;69.87;98123.78;5055564;28;42051;-88
2024/01/06 13:43:31;;;;;;;3.60;2.27;;;;;;;12.06;69.78;98119.66;5055117;28;43851;-90
2024/01/06 13:45:59;;;;;;;3.97;2.30;;;;;;;12.01;70.08;98122.69;5054586;28;40918;-88
2024/01/06 13:48:27;;;;;;;2.37;1.90;;;;;;;11.90;70.20;98119.19;5055551;28;39028;-88
2024/01/06 13:50:57;;;;;;;3.03;2.07;;;;;;;11.81;70.28;98120.78;5055137;28;40887;-89
2024/01/06 13:53:25;;;;;;;2.60;2.30;;;;;;;11.74;69.84;98127.50;5055157;28;41553;-89
2024/01/06 13:55:53;;;;;;;3.13;2.20;;;;;;;11.77;70.31;98141.38;5054856;28;42468;-89
2024/01/06 13:58:20;;;;;;;3.30;2.00;;;;;;;11.66;70.00;98146.66;5055028;28;38725;-88
2024/01/06 14:00:53;;;;;;;2.20;2.00;;;;;;;11.36;70.32;98104.00;5054967;28;40803;-89
2024/01/06 14:03:22;;;;;;;2.23;2.03;;;;;;;11.30;71.01;98102.66;5054718;28;41748;-88
2024/01/06 14:05:51;;;;;;;2.20;1.73;;;;;;;11.41;71.13;98123.03;5054916;28;44233;-90
2024/01/06 14:08:20;;;;;;;5.33;2.13;;;;;;;11.47;71.76;98149.06;5055170;28;40106;-90
2024/01/06 14:10:48;;;;;;;4.73;2.30;;;;;;;11.41;70.90;98147.72;5054657;28;41839;-90
2024/01/06 14:13:16;;;;;;;5.37;3.23;;;;;;;11.31;70.89;98146.75;5055182;28;43094;-89
2024/01/06 14:15:44;;;;;;;4.47;3.07;;;;;;;11.19;70.68;98149.50;5054899;28;41393;-89
2024/01/06 14:18:14;;;;;;;6.63;3.37;;;;;;;11.04;70.65;98152.34;5054912;28;39284;-89
2024/01/06 14:20:42;;;;;;;6.63;3.20;;;;;;;10.78;71.33;98135.75;5054923;28;40879;-88
2024/01/06 14:23:10;;;;;;;3.13;2.83;;;;;;;10.67;71.75;98121.63;5055087;28;41662;-89
2024/01/06 14:25:39;;;;;;;3.67;2.70;;;;;;;10.64;71.88;98135.09;5055088;28;43029;-91
2024/01/06 14:28:07;;;;;;;3.60;2.53;;;;;;;10.57;72.12;98131.22;5055014;28;40051;-89
2024/01/06 14:30:35;;;;;;;3.77;2.87;;;;;;;10.63;72.49;98151.97;5055227;28;40556;-90
2024/01/06 14:33:05;;;;;;;3.70;2.67;;;;;;;10.46;72.48;98136.47;5054585;28;42642;-90
2024/01/06 14:35:36;;;;;;;4.20;2.67;;;;;;;10.50;72.95;98161.75;5055156;28;41994;-90
2024/01/06 14:38:06;;;;;;;3.57;2.77;;;;;;;10.39;72.97;98159.88;5054545;28;38869;-89
2024/01/06 14:40:34;;;;;;;5.53;3.07;;;;;;;10.27;73.50;98144.88;5054531;28;40890;-89
2024/01/06 14:43:05;;;;;;;3.57;2.60;;;;;;;10.29;74.03;98154.41;5054639;28;41764;-88
2024/01/06 14:45:33;;;;;;;3.10;2.80;;;;;;;10.05;74.32;98124.41;5068731;28;42296;-89
2024/01/06 14:48:00;;;;;;;2.77;2.43;;;;;;;9.93;74.92;98106.75;5071557;28;39946;-89
2024/01/06 14:50:28;;;;;;;3.57;2.40;;;;;;;9.91;75.08;98114.81;5054342;28;40895;-90
2024/01/06 14:52:56;;;;;;;4.03;2.60;;;;;;;10.08;74.81;98151.47;5054602;28;43037;-88
2024/01/06 14:55:24;;;;;;;2.53;2.33;;;;;;;10.05;75.04;98156.13;5054287;28;41353;-88
2024/01/06 14:57:52;;;;;;;4.23;2.67;;;;;;;9.70;75.07;98103.97;5054886;28;39217;-89
2024/01/06 15:00:33;;;;;;;4.63;2.93;;;;;;;9.91;74.90;98150.97;5054733;28;40824;-89
2024/01/06 15:03:01;;;;;;;6.70;3.10;;;;;;;9.99;74.85;98178.59;5049489;28;41916;-89
2024/01/06 15:05:39;;;;;;;3.90;2.93;;;;;;;9.85;75.66;98160.22;5053597;28;41666;-89
2024/01/06 15:08:07;;;;;;;4.40;2.67;;;;;;;9.82;75.89;98165.72;5051871;28;40010;-88
2024/01/06 15:10:36;;;;;;;4.33;2.87;;;;;;;9.80;76.26;98174.69;5054178;28;40621;-90
2024/01/06 15:13:05;;;;;;;3.63;2.57;;;;;;;9.72;76.62;98170.81;5054041;28;43233;-89
2024/01/06 15:15:34;;;;;;;4.50;2.43;;;;;;;9.58;76.97;98163.00;5053840;28;41614;-88
2024/01/06 15:18:03;;;;;;;4.57;2.73;;;;;;;9.43;77.26;98142.91;5053768;28;40382;-88
2024/01/06 15:20:30;;;;;;;4.03;3.27;;;;;;;9.48;77.48;98161.09;5053546;28;42162;-90
2024/01/06 15:23:01;;;;;;;4.93;4.00;;;;;;;9.32;77.58;98156.00;5053232;28;43067;-90
2024/01/06 15:25:29;;;;;;;5.33;3.73;;;;;;;9.44;77.89;98191.31;5053665;28;41323;-89
2024/01/06 15:27:56;;;;;;;6.67;4.10;;;;;;;9.12;78.34;98159.16;5053619;28;38867;-90
2024/01/06 15:30:24;;;;;;;7.30;4.63;;;;;;;9.35;79.01;98203.38;5053627;28;41197;-90
2024/01/06 15:32:53;;;;;;;6.73;4.50;;;;;;;9.27;79.54;98203.06;5053360;28;42433;-87
2024/01/06 15:35:21;;;;;;;5.97;4.30;;;;;;;9.02;79.80;98173.94;5053390;28;42085;-87
2024/01/06 15:37:49;;;;;;;8.23;5.00;;;;;;;9.10;80.50;98198.88;5070306;28;40082;-88
2024/01/06 15:40:17;;;;;;;6.17;4.80;;;;;;;9.05;81.06;98206.25;5070610;28;41915;-90
2024/01/06 15:42:45;;;;;;;6.90;4.57;;;;;;;8.88;81.16;98188.91;5053902;28;42728;-91
2024/01/06 15:45:12;;;;;;;6.10;4.83;;;;;;;8.92;81.98;98206.22;5053837;28;41046;-90
2024/01/06 15:47:43;;;;;;;6.67;4.57;;;;;;;8.87;82.48;98210.97;5053532;28;39119;-90
2024/01/06 15:50:14;;;;;;;7.90;4.93;;;;;;;8.62;83.06;98182.72;5054612;28;40606;-89
2024/01/06 15:52:45;;;;;;;6.53;4.97;;;;;;;8.63;83.38;98199.41;5056999;28;42075;-89
2024/01/06 15:55:13;;;;;;;9.30;5.00;;;;;;;8.60;83.83;98203.06;5056927;28;42004;-88
2024/01/06 15:57:41;;;;;;;6.27;4.57;;;;;;;8.64;83.85;98214.28;5057445;28;38861;-88
2024/01/06 16:00:10;;;;;;;5.23;4.73;;;;;;;8.49;83.91;98192.38;5057163;28;40334;-88
2024/01/06 16:02:39;;;;;;;6.17;4.60;;;;;;;8.40;83.90;98186.84;5056913;28;41596;-89
